Time;durP1;ratioP1;P1;durP2;ratioP2;P2;SDS_P1;SDS_P2;PMS_P1;PMS_P2;Temp;Humidity;BMP_temperature;BMP_pressure;BME280_temperature;BME280_humidity;BME280_pressure;Samples;Min_cycle;Max_cycle;Signal;HPM_P1;HPM_P2
2021/11/30 00:01:34;;;;;;;2.13;1.10;;;23.70;66.50;;;;;;4142511;28;20072;-58
2021/11/30 00:03:38;;;;;;;2.65;1.33;;;23.70;66.80;;;;;;4137844;28;20111;-58
2021/11/30 00:05:40;;;;;;;2.13;1.10;;;23.80;66.80;;;;;;4133244;28;20111;-58
2021/11/30 00:07:42;;;;;;;2.10;0.98;;;23.70;66.50;;;;;;4136075;28;20054;-55
2021/11/30 00:11:46;;;;;;;1.83;1.10;;;23.80;66.50;;;;;;4136200;28;20076;-60
2021/11/30 00:13:48;;;;;;;2.08;0.93;;;23.80;66.40;;;;;;4140882;28;20052;-59
2021/11/30 00:15:55;;;;;;;1.60;1.05;;;23.80;66.40;;;;;;4139038;28;20473;-58
2021/11/30 00:17:57;;;;;;;1.88;1.08;;;23.80;66.40;;;;;;4136865;28;20061;-58
2021/11/30 00:20:00;;;;;;;2.72;1.10;;;23.90;66.50;;;;;;4137067;28;20053;-58
2021/11/30 00:22:03;;;;;;;2.30;1.00;;;23.90;66.40;;;;;;4135596;28;20105;-58
2021/11/30 00:24:05;;;;;;;;;;;23.90;66.40;;;;;;4135013;28;20806;-58
2021/11/30 00:26:07;;;;;;;1.25;0.93;;;23.90;66.40;;;;;;4135075;28;19925;-55
2021/11/30 00:28:10;;;;;;;4.10;1.13;;;23.90;66.30;;;;;;4139439;28;20111;-56
2021/11/30 00:30:13;;;;;;;1.80;0.95;;;23.90;66.30;;;;;;4143360;28;20152;-55
2021/11/30 00:32:15;;;;;;;2.45;1.20;;;23.90;66.20;;;;;;4138360;28;22175;-58
2021/11/30 00:34:17;;;;;;;1.37;1.20;;;23.90;66.30;;;;;;4136476;28;22166;-58
2021/11/30 00:36:20;;;;;;;1.43;0.93;;;24.00;66.30;;;;;;4138689;28;20067;-58
2021/11/30 00:38:22;;;;;;;1.20;0.85;;;24.00;66.20;;;;;;4136933;28;20052;-56
2021/11/30 00:40:26;;;;;;;1.30;0.90;;;24.00;66.20;;;;;;4137735;28;20150;-57
2021/11/30 00:42:28;;;;;;;2.75;1.13;;;24.00;66.20;;;;;;4141819;28;20211;-58
2021/11/30 00:44:34;;;;;;;3.75;1.80;;;24.00;66.00;;;;;;4140368;28;20156;-50
2021/11/30 00:46:40;;;;;;;3.53;1.88;;;24.00;65.50;;;;;;4140591;28;20045;-52
2021/11/30 00:48:42;;;;;;;6.15;1.95;;;24.00;65.10;;;;;;4139010;28;20052;-49
2021/11/30 00:50:45;;;;;;;2.63;1.60;;;24.00;65.20;;;;;;4136827;28;20073;-57
2021/11/30 00:52:48;;;;;;;2.75;1.70;;;24.00;65.40;;;;;;4134809;28;20063;-57
2021/11/30 00:54:50;;;;;;;3.38;1.25;;;24.00;65.70;;;;;;4136299;28;20558;-57
2021/11/30 00:56:53;;;;;;;3.17;1.30;;;24.00;65.70;;;;;;4137994;28;20052;-51
2021/11/30 00:58:55;;;;;;;1.35;1.05;;;24.00;65.70;;;;;;4144719;28;20106;-57
2021/11/30 01:02:55;;;;;;;2.22;1.48;;;24.00;65.10;;;;;;4188071;27;20429;-73
2021/11/30 01:05:08;;;;;;;1.92;1.13;;;24.10;65.50;;;;;;4171001;28;20052;-73
2021/11/30 01:07:11;;;;;;;4.00;1.50;;;24.10;65.30;;;;;;4186468;28;20056;-72
2021/11/30 01:09:13;;;;;;;;;;;24.10;65.60;;;;;;4169437;28;20078;-72
2021/11/30 01:11:15;;;;;;;2.15;1.48;;;24.10;66.70;;;;;;4173304;28;20386;-71
2021/11/30 01:13:18;;;;;;;1.92;1.05;;;24.10;66.20;;;;;;4190688;28;20474;-76
2021/11/30 01:15:22;;;;;;;1.73;1.17;;;24.10;66.10;;;;;;4194299;28;20220;-74
2021/11/30 01:17:24;;;;;;;1.75;1.10;;;24.20;66.20;;;;;;4192915;28;20112;-75
2021/11/30 01:19:26;;;;;;;1.30;1.05;;;24.20;66.20;;;;;;4188855;28;20095;-73
2021/11/30 01:21:29;;;;;;;1.58;0.88;;;24.20;66.40;;;;;;4190337;28;20051;-73
2021/11/30 01:23:32;;;;;;;2.33;1.10;;;24.20;66.30;;;;;;4189326;28;20105;-74
2021/11/30 01:25:34;;;;;;;2.67;1.13;;;24.20;66.20;;;;;;4191464;28;20066;-73
2021/11/30 01:27:37;;;;;;;1.38;0.93;;;24.20;66.20;;;;;;4191552;28;20647;-75
2021/11/30 01:29:40;;;;;;;2.60;1.20;;;24.30;66.30;;;;;;4176703;28;20085;-74
2021/11/30 01:31:42;;;;;;;;;;;24.30;66.20;;;;;;4193481;28;20040;-75
2021/11/30 01:33:44;;;;;;;2.00;0.85;;;24.30;66.20;;;;;;4195531;28;19927;-75
2021/11/30 01:35:47;;;;;;;1.52;0.88;;;24.30;66.30;;;;;;4193653;28;20175;-75
2021/11/30 01:37:50;;;;;;;1.95;1.08;;;24.30;66.20;;;;;;4178613;28;20082;-74
2021/11/30 01:39:53;;;;;;;2.80;1.17;;;24.40;66.20;;;;;;4177760;28;20032;-74
2021/11/30 01:41:57;;;;;;;1.90;0.90;;;24.40;66.10;;;;;;4162391;28;20454;-76
2021/11/30 01:44:03;;;;;;;1.38;0.75;;;24.40;66.10;;;;;;4167964;28;20804;-76
2021/11/30 01:46:15;;;;;;;2.55;1.00;;;24.40;66.00;;;;;;4179917;28;20138;-75
2021/11/30 01:50:25;;;;;;;2.63;1.00;;;24.40;65.90;;;;;;4169986;28;20082;-77
2021/11/30 01:52:29;;;;;;;3.23;2.10;;;24.40;66.00;;;;;;4180929;28;20052;-77
2021/11/30 01:54:31;;;;;;;3.88;2.25;;;24.40;65.50;;;;;;4174386;28;20162;-77
2021/11/30 01:56:34;;;;;;;4.70;2.45;;;24.40;65.10;;;;;;4171555;28;20663;-77
2021/11/30 01:58:36;;;;;;;5.03;2.58;;;24.50;64.70;;;;;;4168523;28;20109;-73
2021/11/30 02:00:39;;;;;;;3.92;2.42;;;24.50;64.60;;;;;;4169467;28;20049;-73
2021/11/30 02:02:42;;;;;;;4.40;2.50;;;24.50;64.40;;;;;;4170359;28;20931;-74
2021/11/30 02:04:44;;;;;;;5.43;2.10;;;24.50;64.90;;;;;;4175209;28;20059;-75
2021/11/30 02:06:46;;;;;;;6.53;2.40;;;24.50;64.90;;;;;;4176149;28;20745;-74
2021/11/30 02:08:48;;;;;;;5.60;1.80;;;24.50;64.80;;;;;;4168305;28;20048;-73
2021/11/30 02:10:54;;;;;;;4.28;2.20;;;24.50;65.00;;;;;;4150972;28;20205;-72
2021/11/30 02:12:57;;;;;;;4.43;2.53;;;24.60;64.80;;;;;;4160892;28;20541;-75
2021/11/30 02:15:01;;;;;;;4.13;1.92;;;24.50;64.70;;;;;;4155897;28;20121;-75
2021/11/30 02:17:06;;;;;;;5.55;2.25;;;24.50;64.80;;;;;;4141128;28;20076;-75
2021/11/30 02:19:09;;;;;;;4.78;2.35;;;24.50;64.80;;;;;;4157125;28;20048;-75
2021/11/30 02:21:12;;;;;;;3.28;1.92;;;24.50;64.70;;;;;;4146857;28;20516;-74
2021/11/30 02:23:57;;;;;;;4.45;2.30;;;24.50;64.80;;;;;;4167824;28;20827;-73
2021/11/30 02:26:03;;;;;;;3.85;2.00;;;24.60;64.80;;;;;;4161536;28;20056;-75
2021/11/30 02:28:05;;;;;;;2.88;1.75;;;24.60;64.60;;;;;;4160817;28;20562;-80
2021/11/30 02:30:07;;;;;;;3.77;2.33;;;24.60;64.80;;;;;;4163928;28;20095;-81
2021/11/30 02:32:10;;;;;;;7.18;1.98;;;24.60;65.00;;;;;;4157249;28;22204;-75
2021/11/30 02:34:13;;;;;;;2.15;1.60;;;24.60;65.40;;;;;;4159731;28;21889;-75
2021/11/30 02:36:26;;;;;;;;;;;24.60;65.50;;;;;;4140206;28;20045;-76
2021/11/30 02:38:28;;;;;;;2.38;1.15;;;24.60;65.40;;;;;;4155495;28;19929;-77
2021/11/30 02:40:30;;;;;;;1.85;1.30;;;24.60;65.40;;;;;;4141247;28;20612;-77
2021/11/30 02:42:32;;;;;;;2.47;1.33;;;24.70;65.50;;;;;;4141863;28;20503;-76
2021/11/30 02:44:36;;;;;;;2.00;1.20;;;24.70;65.80;;;;;;4143014;28;20056;-74
2021/11/30 02:46:48;;;;;;;2.50;1.08;;;24.70;65.80;;;;;;4162150;28;20040;-78
2021/11/30 02:48:50;;;;;;;3.33;1.50;;;24.80;65.80;;;;;;4140991;28;20041;-81
2021/11/30 02:50:52;;;;;;;2.50;1.25;;;24.80;65.80;;;;;;4163257;28;20486;-79
2021/11/30 02:52:56;;;;;;;3.10;1.02;;;24.80;65.80;;;;;;4159256;28;20764;-77
2021/11/30 02:54:59;;;;;;;2.33;0.98;;;24.80;65.80;;;;;;4136336;28;20056;-75
2021/11/30 02:57:05;;;;;;;3.00;1.10;;;24.80;65.80;;;;;;4135152;28;20048;-75
2021/11/30 02:59:07;;;;;;;1.65;0.98;;;24.80;66.60;;;;;;4155487;28;20044;-75
2021/11/30 03:01:11;;;;;;;1.98;1.05;;;24.80;66.00;;;;;;4151526;28;20055;-77
2021/11/30 03:03:14;;;;;;;1.55;1.00;;;24.90;66.00;;;;;;4152956;28;20113;-75
2021/11/30 03:05:16;;;;;;;;;;;24.90;65.90;;;;;;4151915;28;20477;-77
2021/11/30 03:07:36;;;;;;;1.10;0.80;;;24.90;65.90;;;;;;4176960;28;19924;-74
2021/11/30 03:09:40;;;;;;;1.40;1.13;;;24.90;65.90;;;;;;4152106;28;20762;-76
2021/11/30 03:11:41;;;;;;;;;;;24.90;65.80;;;;;;4153915;28;20044;-77
2021/11/30 03:13:43;;;;;;;3.53;1.52;;;24.90;65.70;;;;;;4158613;28;19932;-77
2021/11/30 03:15:45;;;;;;;2.35;0.90;;;24.90;65.70;;;;;;4161022;28;20663;-78
2021/11/30 03:17:48;;;;;;;3.85;1.02;;;24.90;65.60;;;;;;4152594;28;21668;-77
2021/11/30 03:19:51;;;;;;;2.03;0.90;;;24.90;65.50;;;;;;4153012;28;20081;-75
2021/11/30 03:21:53;;;;;;;1.45;1.08;;;24.90;65.50;;;;;;4152704;28;20048;-78
2021/11/30 03:23:55;;;;;;;3.95;1.35;;;24.90;65.60;;;;;;4154063;28;20072;-79
2021/11/30 03:25:58;;;;;;;3.83;1.10;;;24.90;65.50;;;;;;4152583;28;20139;-76
2021/11/30 03:28:00;;;;;;;2.50;1.05;;;24.90;65.50;;;;;;4160000;28;20053;-77
2021/11/30 03:30:07;;;;;;;2.85;1.05;;;24.90;65.60;;;;;;4154128;28;20206;-75
2021/11/30 03:32:13;;;;;;;1.95;1.08;;;24.90;65.50;;;;;;4154237;28;20071;-75
2021/11/30 03:34:22;;;;;;;2.50;1.10;;;24.90;65.50;;;;;;4154320;28;22011;-75
2021/11/30 03:36:24;;;;;;;1.40;1.00;;;24.90;65.70;;;;;;4154538;28;20052;-74
2021/11/30 03:38:26;;;;;;;2.13;1.33;;;24.90;65.70;;;;;;4149618;28;20115;-76
2021/11/30 03:40:28;;;;;;;1.95;1.30;;;24.90;65.70;;;;;;4152170;28;20920;-74
2021/11/30 03:42:30;;;;;;;2.13;1.13;;;24.90;65.70;;;;;;4150900;28;20040;-74
2021/11/30 03:44:32;;;;;;;2.30;1.25;;;24.90;65.70;;;;;;4151065;28;20121;-72
2021/11/30 03:46:35;;;;;;;2.90;1.63;;;24.90;65.80;;;;;;4158999;28;20103;-80
2021/11/30 03:48:37;;;;;;;8.27;2.00;;;24.90;65.90;;;;;;4156187;28;20277;-79
2021/11/30 03:50:39;;;;;;;4.07;1.52;;;24.90;66.10;;;;;;4151645;28;20053;-80
2021/11/30 03:52:42;;;;;;;3.60;1.40;;;25.00;66.60;;;;;;4151265;28;20040;-77
2021/11/30 03:54:44;;;;;;;8.18;1.50;;;25.00;66.80;;;;;;4133835;28;20501;-76
2021/11/30 03:56:47;;;;;;;13.23;1.90;;;25.00;67.10;;;;;;4139347;28;20120;-74
2021/11/30 03:58:50;;;;;;;3.10;1.70;;;25.00;67.10;;;;;;4139831;28;20103;-75
2021/11/30 04:27:50;;;;;;;2.75;1.50;;;25.40;66.20;;;;;;5067386;22;2459806;-53
2021/11/30 04:29:52;;;;;;;5.35;1.48;;;25.40;66.20;;;;;;5159923;22;20621;-53
2021/11/30 04:31:55;;;;;;;3.58;1.60;;;25.40;66.20;;;;;;5161664;22;20101;-54
2021/11/30 04:33:57;;;;;;;2.85;1.55;;;25.40;66.20;;;;;;5159131;22;20094;-55
2021/11/30 04:35:59;;;;;;;3.65;1.50;;;25.40;66.20;;;;;;5162455;22;20054;-55
2021/11/30 04:38:02;;;;;;;2.88;1.58;;;25.50;66.20;;;;;;5163835;22;20035;-52
2021/11/30 04:40:09;;;;;;;2.22;1.40;;;25.50;66.10;;;;;;5165796;22;20538;-53
2021/11/30 04:42:11;;;;;;;2.92;1.70;;;25.50;66.10;;;;;;5164155;22;20028;-54
2021/11/30 04:44:13;;;;;;;2.30;1.40;;;25.40;66.10;;;;;;5162556;22;21036;-57
2021/11/30 04:46:27;;;;;;;2.27;1.60;;;25.50;66.10;;;;;;5162327;22;20111;-52
2021/11/30 04:48:32;;;;;;;2.58;1.50;;;25.50;66.10;;;;;;5160440;22;20344;-54
2021/11/30 04:50:36;;;;;;;1.67;1.00;;;25.50;66.10;;;;;;5160182;22;20647;-53
2021/11/30 04:52:41;;;;;;;2.65;1.20;;;25.50;66.10;;;;;;5162829;22;20031;-52
2021/11/30 04:54:43;;;;;;;2.60;1.15;;;25.50;66.10;;;;;;5163196;22;20032;-55
2021/11/30 04:56:45;;;;;;;1.63;1.30;;;25.50;66.10;;;;;;5163303;22;20039;-53
2021/11/30 04:58:47;;;;;;;1.80;1.00;;;25.50;66.10;;;;;;5165118;22;20023;-52
2021/11/30 05:00:50;;;;;;;2.10;1.33;;;25.50;66.10;;;;;;5167683;22;20038;-55
2021/11/30 05:02:52;;;;;;;2.90;1.27;;;25.50;66.10;;;;;;5163385;22;20031;-51
2021/11/30 05:04:54;;;;;;;1.80;1.25;;;25.50;66.20;;;;;;5160819;22;20930;-50
2021/11/30 05:06:57;;;;;;;1.25;0.88;;;25.60;66.70;;;;;;5162677;22;20034;-51
2021/11/30 05:09:02;;;;;;;10.30;1.60;;;25.60;66.40;;;;;;5164156;22;20023;-54
2021/11/30 05:11:04;;;;;;;2.60;1.30;;;25.60;66.40;;;;;;5144171;22;20024;-56
2021/11/30 05:13:06;;;;;;;1.60;1.00;;;25.60;66.50;;;;;;5134951;23;20028;-58
2021/11/30 05:15:11;;;;;;;3.55;1.23;;;25.60;66.30;;;;;;5141502;22;20114;-57
2021/11/30 05:17:13;;;;;;;2.20;1.00;;;25.60;66.30;;;;;;5145092;22;20093;-52
2021/11/30 05:19:15;;;;;;;2.40;1.10;;;25.60;66.40;;;;;;5139123;23;20031;-54
2021/11/30 05:21:19;;;;;;;1.90;1.15;;;25.60;66.30;;;;;;5137988;22;20105;-55
2021/11/30 05:23:30;;;;;;;;;;;25.60;66.30;;;;;;5136417;23;20028;-54
2021/11/30 05:25:35;;;;;;;2.92;1.02;;;25.60;66.30;;;;;;5135999;22;19915;-54
2021/11/30 05:27:41;;;;;;;2.45;1.35;;;25.60;66.30;;;;;;5131869;22;20024;-52
2021/11/30 05:29:44;;;;;;;0.80;0.80;;;25.60;66.40;;;;;;5106158;23;20053;-53
2021/11/30 05:31:46;;;;;;;1.95;1.10;;;25.60;66.30;;;;;;5132935;23;20035;-57
2021/11/30 05:33:48;;;;;;;1.50;0.80;;;25.60;66.30;;;;;;5105897;23;20122;-52
2021/11/30 05:35:51;;;;;;;1.55;0.90;;;25.60;67.00;;;;;;5135553;23;20057;-53
2021/11/30 05:37:53;;;;;;;1.10;0.87;;;25.60;66.40;;;;;;5108920;23;20735;-56
2021/11/30 05:39:55;;;;;;;1.75;0.82;;;25.60;66.30;;;;;;5130314;23;20634;-53
2021/11/30 05:41:57;;;;;;;1.38;1.00;;;25.60;66.40;;;;;;5132756;23;20023;-56
2021/11/30 05:43:59;;;;;;;1.85;0.98;;;25.60;66.40;;;;;;5132498;23;20020;-56
2021/11/30 05:46:01;;;;;;;1.80;0.93;;;25.60;66.40;;;;;;5132431;23;20036;-53
2021/11/30 05:48:04;;;;;;;1.13;0.80;;;25.60;66.40;;;;;;5133343;23;20028;-55
2021/11/30 05:50:06;;;;;;;2.33;1.13;;;;;;;;;;5135580;23;20038;-53
2021/11/30 05:52:09;;;;;;;1.63;1.00;;;25.60;66.50;;;;;;5130355;23;20234;-57
2021/11/30 05:54:11;;;;;;;1.35;1.08;;;25.60;66.30;;;;;;5128885;23;20956;-56
2021/11/30 05:56:13;;;;;;;0.80;0.70;;;25.70;67.10;;;;;;5130260;23;20020;-52
2021/11/30 05:58:20;;;;;;;4.28;1.20;;;25.70;66.40;;;;;;5129609;23;20024;-54
2021/11/30 06:00:23;;;;;;;1.75;1.10;;;25.70;66.50;;;;;;5127505;23;20116;-52
2021/11/30 06:02:25;;;;;;;2.38;1.27;;;25.70;66.60;;;;;;5129099;23;20525;-55
2021/11/30 06:04:27;;;;;;;3.33;1.45;;;25.70;66.50;;;;;;5133040;23;20032;-53
2021/11/30 06:06:32;;;;;;;3.33;1.40;;;25.70;66.60;;;;;;5134150;23;20090;-53
2021/11/30 06:08:34;;;;;;;2.22;1.27;;;25.70;66.50;;;;;;5129278;23;20644;-54
2021/11/30 06:10:36;;;;;;;4.20;1.80;;;25.70;66.50;;;;;;5130394;22;20167;-55
2021/11/30 06:12:38;;;;;;;2.17;1.38;;;25.70;66.50;;;;;;5129605;23;20056;-57
2021/11/30 06:14:40;;;;;;;4.15;1.80;;;25.70;66.40;;;;;;5130319;23;20505;-53
2021/11/30 06:16:43;;;;;;;2.78;1.58;;;25.70;66.30;;;;;;5132310;23;20044;-52
2021/11/30 06:18:45;;;;;;;2.45;1.48;;;25.70;66.20;;;;;;5137304;23;20054;-53
2021/11/30 06:20:49;;;;;;;2.85;1.40;;;25.70;66.10;;;;;;5102990;23;20055;-53
2021/11/30 06:22:51;;;;;;;2.13;1.23;;;25.70;66.00;;;;;;5130671;23;20545;-50
2021/11/30 06:24:53;;;;;;;2.40;1.40;;;25.70;65.90;;;;;;5130480;23;20390;-52
2021/11/30 06:26:55;;;;;;;2.75;1.25;;;25.70;65.90;;;;;;5131527;23;20528;-53
2021/11/30 06:28:58;;;;;;;4.10;1.20;;;25.70;65.70;;;;;;5127995;23;20032;-49
2021/11/30 06:31:00;;;;;;;2.55;1.38;;;25.70;65.60;;;;;;5131668;23;20358;-53
2021/11/30 06:33:03;;;;;;;2.58;1.27;;;25.70;65.60;;;;;;5131084;23;20071;-50
2021/11/30 06:35:06;;;;;;;2.10;1.20;;;25.70;65.50;;;;;;5130550;23;20123;-50
2021/11/30 06:37:09;;;;;;;2.92;1.23;;;25.70;65.40;;;;;;5128954;23;20035;-55
2021/11/30 06:39:12;;;;;;;2.10;1.23;;;25.60;65.40;;;;;;5129368;23;20024;-54
2021/11/30 06:41:15;;;;;;;3.60;1.25;;;25.60;65.40;;;;;;5100156;23;20029;-48
2021/11/30 06:43:18;;;;;;;3.58;1.35;;;25.60;65.50;;;;;;5128466;23;20127;-50
2021/11/30 06:45:20;;;;;;;2.20;1.27;;;25.60;65.70;;;;;;5102016;23;20032;-57
2021/11/30 06:47:23;;;;;;;7.55;1.15;;;25.60;65.90;;;;;;5131473;23;20032;-55
2021/11/30 06:49:25;;;;;;;4.78;1.05;;;25.60;66.10;;;;;;5128399;23;21185;-55
2021/11/30 06:51:27;;;;;;;2.25;1.10;;;25.60;66.30;;;;;;5128331;23;20140;-53
2021/11/30 06:53:33;;;;;;;1.38;0.90;;;25.60;66.30;;;;;;5124877;23;20024;-56
2021/11/30 06:55:35;;;;;;;2.33;1.02;;;25.60;66.20;;;;;;5127155;23;20043;-54
2021/11/30 06:57:37;;;;;;;2.65;1.20;;;25.60;66.30;;;;;;5128944;23;20377;-52
2021/11/30 06:59:40;;;;;;;2.00;0.90;;;25.60;66.30;;;;;;5131183;23;20032;-53
2021/11/30 08:02:36;;;;;;;0.60;0.60;;;25.70;66.60;;;;;;4979615;23;2462287;-50
2021/11/30 08:04:38;;;;;;;1.60;0.85;;;25.70;66.70;;;;;;5057598;23;20793;-44
2021/11/30 08:06:40;;;;;;;1.50;0.60;;;25.60;66.70;;;;;;5031443;23;20330;-47
2021/11/30 08:08:43;;;;;;;0.98;0.80;;;25.60;66.80;;;;;;5033045;23;20405;-46
2021/11/30 08:10:45;;;;;;;3.15;0.82;;;25.70;66.80;;;;;;5058509;23;20411;-52
2021/11/30 08:12:48;;;;;;;1.53;0.90;;;25.60;66.60;;;;;;5059153;23;20030;-52
2021/11/30 08:14:50;;;;;;;1.23;0.75;;;25.60;66.70;;;;;;5029964;23;20824;-49
2021/11/30 08:16:52;;;;;;;4.35;1.25;;;25.60;66.70;;;;;;5054390;23;20029;-47
2021/11/30 08:18:54;;;;;;;1.75;0.60;;;25.60;66.80;;;;;;5054403;23;20546;-55
2021/11/30 08:20:56;;;;;;;1.30;0.80;;;25.60;66.70;;;;;;5053380;23;20033;-48
2021/11/30 08:22:59;;;;;;;0.65;0.60;;;25.60;67.00;;;;;;5055047;23;20548;-51
2021/11/30 08:25:01;;;;;;;2.58;0.70;;;25.60;67.00;;;;;;5053434;23;20030;-54
2021/11/30 08:27:05;;;;;;;0.93;0.68;;;25.60;66.90;;;;;;5057049;23;20030;-47
2021/11/30 08:29:07;;;;;;;0.50;0.50;;;25.60;66.90;;;;;;5053404;23;20052;-49
2021/11/30 08:31:09;;;;;;;1.23;0.70;;;25.60;67.00;;;;;;5053092;23;20026;-49
2021/11/30 08:33:12;;;;;;;0.80;0.50;;;25.60;66.90;;;;;;5053019;23;20279;-51
2021/11/30 08:35:14;;;;;;;2.83;0.50;;;25.50;66.80;;;;;;5003721;23;20074;-51
2021/11/30 08:37:16;;;;;;;5.43;0.65;;;25.50;66.90;;;;;;5024525;23;20026;-50
2021/11/30 08:39:19;;;;;;;0.40;0.40;;;25.50;67.00;;;;;;5055767;23;20071;-51
2021/11/30 08:41:23;;;;;;;1.63;0.70;;;25.50;67.00;;;;;;5053922;23;20041;-49
2021/11/30 08:43:26;;;;;;;0.50;0.50;;;25.50;67.00;;;;;;5054855;23;20922;-50
2021/11/30 08:45:28;;;;;;;1.55;0.70;;;25.50;67.00;;;;;;5053179;23;20033;-46
2021/11/30 08:47:30;;;;;;;1.27;0.60;;;25.50;67.10;;;;;;5053942;23;20037;-48
2021/11/30 08:49:33;;;;;;;0.43;0.40;;;25.50;67.00;;;;;;5053600;23;20108;-51
2021/11/30 08:51:35;;;;;;;0.40;0.40;;;25.40;67.50;;;;;;5053408;23;20025;-48
2021/11/30 08:53:37;;;;;;;0.85;0.47;;;25.40;67.00;;;;;;5058206;23;20049;-47
2021/11/30 08:55:39;;;;;;;0.60;0.50;;;25.40;67.20;;;;;;5032451;23;20030;-47
2021/11/30 08:57:42;;;;;;;1.35;0.30;;;25.40;67.20;;;;;;5054481;23;20026;-51
2021/11/30 08:59:45;;;;;;;1.10;0.60;;;25.40;67.20;;;;;;5054037;23;20029;-45
2021/11/30 09:01:47;;;;;;;2.72;0.60;;;25.40;67.20;;;;;;5026226;23;20488;-45
2021/11/30 09:03:49;;;;;;;0.65;0.50;;;25.40;67.30;;;;;;5053867;23;20033;-46
2021/11/30 09:05:51;;;;;;;0.82;0.60;;;25.40;67.20;;;;;;5052754;23;20040;-51
2021/11/30 09:07:53;;;;;;;0.30;0.30;;;25.40;67.20;;;;;;5057862;23;20456;-50
2021/11/30 09:09:55;;;;;;;1.00;0.60;;;25.40;67.30;;;;;;5027074;23;20054;-49
2021/11/30 09:11:59;;;;;;;1.83;0.70;;;25.40;67.30;;;;;;5053361;23;20028;-46
2021/11/30 09:14:01;;;;;;;2.90;0.73;;;25.40;67.40;;;;;;5053549;23;20087;-47
2021/11/30 09:16:03;;;;;;;0.67;0.50;;;25.40;67.40;;;;;;5056201;23;20084;-48
2021/11/30 09:18:05;;;;;;;1.80;0.57;;;25.40;67.50;;;;;;5055512;23;20104;-51
2021/11/30 09:20:09;;;;;;;1.10;0.60;;;25.40;67.70;;;;;;5032112;23;20086;-53
2021/11/30 09:22:12;;;;;;;3.60;0.70;;;25.40;67.80;;;;;;5057881;23;20427;-48
2021/11/30 09:24:15;;;;;;;1.17;0.90;;;25.40;67.80;;;;;;5056799;23;20217;-54
2021/11/30 09:26:18;;;;;;;0.68;0.50;;;25.40;67.70;;;;;;5028685;23;20050;-52
2021/11/30 09:28:20;;;;;;;1.80;0.70;;;25.30;67.70;;;;;;5030370;23;20579;-49
2021/11/30 09:30:24;;;;;;;0.50;0.50;;;25.40;67.90;;;;;;5056562;23;20041;-50
2021/11/30 09:32:30;;;;;;;1.85;0.73;;;25.30;67.80;;;;;;5058417;23;20037;-48
2021/11/30 09:34:32;;;;;;;0.50;0.50;;;25.30;67.90;;;;;;5053078;23;20029;-52
2021/11/30 09:36:35;;;;;;;1.42;0.68;;;25.30;68.50;;;;;;5048492;23;20113;-58
2021/11/30 09:38:40;;;;;;;2.15;0.68;;;25.30;68.60;;;;;;5065757;23;20135;-53
2021/11/30 09:40:42;;;;;;;1.02;0.68;;;25.30;68.50;;;;;;5061640;23;20077;-54
2021/11/30 09:42:44;;;;;;;1.30;0.60;;;25.40;68.60;;;;;;5056898;23;20030;-52
2021/11/30 09:44:47;;;;;;;2.28;1.13;;;25.40;68.60;;;;;;5019507;23;20606;-52
2021/11/30 09:46:50;;;;;;;1.23;0.70;;;25.40;68.50;;;;;;5019063;23;20822;-55
2021/11/30 09:48:53;;;;;;;0.82;0.60;;;25.40;68.40;;;;;;5053206;23;20132;-55
2021/11/30 09:50:55;;;;;;;1.55;0.52;;;25.40;68.40;;;;;;5053155;23;20096;-54
2021/11/30 09:52:58;;;;;;;0.73;0.60;;;25.40;68.30;;;;;;5058459;23;20029;-55
2021/11/30 09:55:00;;;;;;;0.70;0.60;;;25.40;68.30;;;;;;5054068;23;20025;-55
2021/11/30 09:57:03;;;;;;;0.40;0.40;;;25.40;68.30;;;;;;5052767;23;21076;-56
2021/11/30 09:59:05;;;;;;;1.90;0.60;;;25.40;68.20;;;;;;5043769;23;20029;-55
2021/11/30 10:02:13;;;;;;;1.35;0.65;;;25.40;67.60;;;;;;4206500;27;20378;-55
2021/11/30 10:04:15;;;;;;;2.05;0.52;;;25.50;68.80;;;;;;4190601;27;20174;-54
2021/11/30 10:06:18;;;;;;;0.80;0.70;;;25.40;68.20;;;;;;4191740;27;20170;-55
2021/11/30 10:08:38;;;;;;;1.17;0.40;;;25.40;68.10;;;;;;4195689;28;20054;-53
2021/11/30 10:10:40;;;;;;;1.33;0.82;;;25.40;68.30;;;;;;4175215;27;20395;-52
2021/11/30 10:12:44;;;;;;;0.50;0.47;;;25.50;68.20;;;;;;4173463;28;20965;-55
2021/11/30 10:14:47;;;;;;;0.85;0.50;;;25.50;68.20;;;;;;4174065;28;20052;-56
2021/11/30 10:17:09;;;;;;;0.82;0.55;;;25.50;68.10;;;;;;4170822;28;20209;-57
2021/11/30 10:19:12;;;;;;;0.73;0.50;;;25.50;68.10;;;;;;4141667;28;20151;-55
2021/11/30 10:21:21;;;;;;;0.55;0.50;;;25.50;68.00;;;;;;4167928;28;20090;-49
2021/11/30 10:23:25;;;;;;;0.95;0.50;;;25.50;68.10;;;;;;4141208;28;20049;-50
2021/11/30 10:25:38;;;;;;;0.98;0.60;;;25.50;68.10;;;;;;4157682;28;20056;-55
2021/11/30 10:27:53;;;;;;;0.73;0.50;;;25.50;68.00;;;;;;4154049;28;20118;-54
2021/11/30 10:29:55;;;;;;;1.70;0.60;;;25.50;67.90;;;;;;4167175;28;21032;-55
2021/11/30 10:31:58;;;;;;;1.17;0.60;;;25.50;67.90;;;;;;4158188;28;20143;-52
2021/11/30 10:34:26;;;;;;;0.50;0.47;;;25.50;67.90;;;;;;4160664;28;20056;-55
2021/11/30 10:36:28;;;;;;;0.50;0.50;;;25.50;67.90;;;;;;4178980;28;21114;-55
2021/11/30 10:38:40;;;;;;;0.60;0.60;;;25.50;67.80;;;;;;4166659;28;20102;-50
2021/11/30 10:40:45;;;;;;;0.55;0.50;;;25.50;67.80;;;;;;4179052;28;20059;-54
2021/11/30 10:42:53;;;;;;;0.35;0.35;;;25.50;67.90;;;;;;4178110;28;20056;-55
2021/11/30 10:44:57;;;;;;;0.65;0.60;;;25.50;67.90;;;;;;4176723;28;20186;-51
2021/11/30 10:47:16;;;;;;;0.65;0.50;;;25.50;67.80;;;;;;4170398;28;20163;-50
2021/11/30 10:49:25;;;;;;;0.40;0.30;;;25.60;67.90;;;;;;4169680;28;20056;-54
2021/11/30 10:51:30;;;;;;;0.73;0.35;;;25.60;67.90;;;;;;4172838;28;20048;-55
2021/11/30 10:53:33;;;;;;;0.63;0.40;;;25.60;68.00;;;;;;4169609;28;20051;-54
2021/11/30 10:55:35;;;;;;;0.65;0.50;;;25.60;67.90;;;;;;4176689;28;20405;-53
2021/11/30 10:57:37;;;;;;;0.52;0.52;;;25.60;67.80;;;;;;4174069;28;20056;-54
2021/11/30 10:59:39;;;;;;;0.63;0.40;;;25.60;67.80;;;;;;4172688;28;21398;-54
2021/11/30 11:01:42;;;;;;;0.52;0.43;;;25.60;67.70;;;;;;4160307;28;20316;-52
2021/11/30 11:03:46;;;;;;;0.77;0.50;;;25.60;67.80;;;;;;4173648;28;20182;-52
2021/11/30 11:08:19;;;;;;;0.30;0.30;;;25.60;67.70;;;;;;4165390;28;20531;-54
2021/11/30 11:10:26;;;;;;;0.70;0.40;;;25.60;67.80;;;;;;4172693;28;20055;-55
2021/11/30 11:12:28;;;;;;;0.52;0.45;;;25.60;67.80;;;;;;4169447;28;20060;-57
2021/11/30 11:14:42;;;;;;;1.15;0.32;;;25.60;67.80;;;;;;4147395;28;21038;-52
2021/11/30 11:16:43;;;;;;;;;;;25.60;67.80;;;;;;4154566;28;20114;-52
2021/11/30 11:18:46;;;;;;;1.45;0.60;;;25.60;67.70;;;;;;4146275;28;19928;-52
2021/11/30 11:20:49;;;;;;;0.63;0.47;;;25.60;67.70;;;;;;4162070;28;20081;-56
2021/11/30 11:22:54;;;;;;;0.60;0.60;;;25.60;67.80;;;;;;4147162;28;20053;-55
2021/11/30 11:25:00;;;;;;;0.32;0.32;;;25.60;67.80;;;;;;4159480;28;20104;-55
2021/11/30 11:27:06;;;;;;;0.50;0.40;;;25.60;67.80;;;;;;4159504;28;21220;-51
2021/11/30 11:29:10;;;;;;;2.53;0.55;;;25.60;67.80;;;;;;4149356;28;20083;-55
2021/11/30 11:31:12;;;;;;;0.57;0.50;;;25.60;67.70;;;;;;4160302;28;20043;-52
2021/11/30 11:33:16;;;;;;;0.50;0.50;;;25.60;67.70;;;;;;4160908;28;20056;-55
2021/11/30 11:35:22;;;;;;;1.23;0.40;;;25.60;67.70;;;;;;4155171;28;20167;-49
2021/11/30 11:37:24;;;;;;;0.68;0.40;;;25.60;67.70;;;;;;4166952;28;20044;-51
2021/11/30 11:39:28;;;;;;;0.80;0.60;;;25.60;67.70;;;;;;4156235;28;20125;-55
2021/11/30 11:41:30;;;;;;;0.40;0.40;;;25.70;67.70;;;;;;4159012;28;20157;-55
2021/11/30 11:43:33;;;;;;;1.00;0.50;;;25.60;68.20;;;;;;4146802;28;20056;-54
2021/11/30 11:45:36;;;;;;;1.55;0.50;;;25.60;67.60;;;;;;4148426;28;20048;-54
2021/11/30 11:47:38;;;;;;;0.98;0.40;;;25.60;67.60;;;;;;4158799;28;20071;-55
2021/11/30 11:49:46;;;;;;;0.45;0.40;;;25.60;67.60;;;;;;4163880;28;20048;-57
2021/11/30 11:51:51;;;;;;;0.75;0.50;;;25.60;67.70;;;;;;4162946;28;21939;-55
2021/11/30 11:53:57;;;;;;;0.45;0.45;;;25.60;67.60;;;;;;4154649;28;20056;-56
2021/11/30 11:56:24;;;;;;;0.47;0.40;;;25.60;67.60;;;;;;4151608;28;20327;-55
2021/11/30 11:58:32;;;;;;;0.70;0.60;;;25.60;67.70;;;;;;4155867;28;20044;-50
2021/11/30 12:00:34;;;;;;;0.70;0.38;;;25.60;68.00;;;;;;4159129;28;20059;-49
2021/11/30 12:02:49;;;;;;;3.28;0.57;;;25.60;67.60;;;;;;4144825;28;20105;-52
2021/11/30 12:05:11;;;;;;;3.45;0.85;;;25.60;67.60;;;;;;4157478;28;20052;-51
2021/11/30 12:07:14;;;;;;;1.00;0.40;;;25.60;67.50;;;;;;4155034;28;20053;-54
2021/11/30 12:09:22;;;;;;;0.85;0.60;;;25.60;67.50;;;;;;4151095;28;20052;-45
2021/11/30 12:11:49;;;;;;;0.70;0.50;;;25.60;67.60;;;;;;4165561;28;20056;-49
2021/11/30 12:13:55;;;;;;;0.80;0.40;;;25.60;67.60;;;;;;4152950;28;20048;-51
2021/11/30 12:16:10;;;;;;;1.63;0.50;;;25.60;67.60;;;;;;4155631;28;20047;-49
2021/11/30 12:18:30;;;;;;;0.40;0.40;;;25.60;67.60;;;;;;4158346;28;20206;-50
2021/11/30 12:20:48;;;;;;;1.65;0.60;;;25.60;67.50;;;;;;4157223;28;20057;-53
2021/11/30 12:22:57;;;;;;;0.73;0.43;;;25.60;68.20;;;;;;4157414;28;20125;-47
2021/11/30 12:24:59;;;;;;;0.68;0.50;;;25.60;67.70;;;;;;4156036;28;20047;-52